Time;durP1;ratioP1;P1;durP2;ratioP2;P2;SDS_P1;SDS_P2;PMS_P1;PMS_P2;Temp;Humidity;BMP_temperature;BMP_pressure;BME280_temperature;BME280_humidity;BME280_pressure;Samples;Min_cycle;Max_cycle;Signal;HPM_P1;HPM_P2
2021/06/04 00:02:01;;;;;;;4.73;4.33;;;18.40;99.90;;;;;;5065007;28;20438;-81
2021/06/04 00:04:26;;;;;;;4.37;4.07;;;18.40;99.90;;;;;;5062523;28;20473;-81
2021/06/04 00:06:52;;;;;;;5.23;4.83;;;18.40;99.90;;;;;;5061650;28;20440;-81
2021/06/04 00:09:18;;;;;;;4.47;4.13;;;18.50;99.90;;;;;;5058936;28;20178;-80
2021/06/04 00:11:50;;;;;;;5.27;4.87;;;18.50;99.90;;;;;;5057976;28;20183;-81
2021/06/04 00:14:23;;;;;;;4.70;4.30;;;18.50;99.90;;;;;;5035819;28;20210;-80
2021/06/04 00:16:58;;;;;;;4.70;4.40;;;18.50;99.90;;;;;;5059855;28;20437;-80
2021/06/04 00:19:28;;;;;;;4.67;4.30;;;18.40;99.90;;;;;;5055268;28;20902;-81
2021/06/04 00:22:02;;;;;;;4.27;3.97;;;18.30;99.90;;;;;;5051641;28;20956;-81
2021/06/04 00:24:27;;;;;;;4.40;4.10;;;18.20;99.90;;;;;;5057011;28;20462;-82
2021/06/04 00:26:54;;;;;;;5.53;5.13;;;18.30;99.90;;;;;;5069506;28;20429;-81
2021/06/04 00:29:21;;;;;;;5.80;4.80;;;18.30;99.90;;;;;;5068158;28;20214;-80
2021/06/04 00:31:49;;;;;;;5.07;4.67;;;18.40;99.90;;;;;;5053527;28;20494;-80
2021/06/04 00:34:15;;;;;;;4.77;4.37;;;18.40;99.90;;;;;;5056273;28;20488;-82
2021/06/04 00:36:41;;;;;;;5.00;4.60;;;18.40;99.90;;;;;;5061377;28;20464;-82
2021/06/04 00:39:10;;;;;;;4.60;4.20;;;18.40;99.90;;;;;;5050154;28;20178;-81
2021/06/04 00:41:43;;;;;;;5.10;4.73;;;18.40;99.90;;;;;;5045720;28;20550;-82
2021/06/04 00:44:08;;;;;;;5.50;5.10;;;18.40;99.90;;;;;;5058523;28;20417;-80
2021/06/04 00:46:34;;;;;;;4.70;4.40;;;18.30;99.90;;;;;;5063169;28;20468;-80
2021/06/04 00:49:00;;;;;;;4.87;4.57;;;18.20;99.90;;;;;;5060822;28;20564;-80
2021/06/04 00:51:33;;;;;;;5.10;4.80;;;18.40;99.90;;;;;;5065896;28;20417;-81
2021/06/04 00:54:00;;;;;;;5.80;5.40;;;18.30;99.90;;;;;;5065937;28;20206;-82
2021/06/04 00:56:27;;;;;;;4.77;4.47;;;18.20;99.90;;;;;;5060939;28;20459;-80
2021/06/04 00:58:55;;;;;;;5.30;4.73;;;18.20;99.90;;;;;;5062677;28;20413;-80
2021/06/04 01:01:24;;;;;;;5.57;5.17;;;18.10;99.90;;;;;;5062129;28;20530;-83
2021/06/04 01:03:55;;;;;;;5.50;5.10;;;18.10;99.90;;;;;;5039915;28;21020;-79
2021/06/04 01:06:42;;;;;;;5.30;4.87;;;18.10;99.90;;;;;;5056196;28;20456;-79
2021/06/04 01:09:19;;;;;;;5.63;5.23;;;18.10;99.90;;;;;;5059480;28;20504;-79
2021/06/04 01:12:17;;;;;;;6.43;5.83;;;18.10;99.90;;;;;;5060389;28;20485;-82
2021/06/04 01:15:13;;;;;;;6.70;6.20;;;18.00;99.90;;;;;;5068045;28;20476;-82
2021/06/04 01:18:07;;;;;;;6.50;5.83;;;18.00;99.90;;;;;;5062011;28;20962;-80
2021/06/04 01:20:53;;;;;;;6.93;6.43;;;17.90;99.90;;;;;;5054656;28;20968;-81
2021/06/04 01:23:55;;;;;;;7.40;6.73;;;17.90;99.90;;;;;;5061291;28;20443;-81
2021/06/04 01:26:36;;;;;;;7.40;6.80;;;17.90;99.90;;;;;;5061228;28;20440;-80
2021/06/04 01:29:10;;;;;;;7.33;6.73;;;17.90;99.90;;;;;;5058165;28;20439;-80
2021/06/04 01:31:47;;;;;;;7.37;6.77;;;17.90;99.90;;;;;;5053705;28;20515;-79
2021/06/04 01:34:20;;;;;;;7.53;6.83;;;17.90;99.90;;;;;;5061270;28;20847;-79
2021/06/04 01:36:50;;;;;;;7.90;7.40;;;17.90;99.90;;;;;;5060819;28;20485;-80
2021/06/04 01:39:20;;;;;;;7.60;7.00;;;17.90;99.90;;;;;;5055375;28;20426;-81
2021/06/04 01:41:48;;;;;;;7.87;7.23;;;17.90;99.90;;;;;;5056446;28;20574;-80
2021/06/04 01:44:29;;;;;;;8.87;7.50;;;17.90;99.90;;;;;;5060559;28;20451;-81
2021/06/04 01:47:01;;;;;;;6.83;6.33;;;18.00;99.90;;;;;;5057166;28;20529;-80
2021/06/04 01:49:31;;;;;;;7.60;7.00;;;17.90;99.90;;;;;;5049590;28;20854;-79
2021/06/04 01:52:07;;;;;;;8.03;7.33;;;18.10;99.90;;;;;;5060504;28;20433;-82
2021/06/04 01:54:40;;;;;;;10.13;8.07;;;18.00;99.90;;;;;;5054809;28;20471;-80
2021/06/04 01:57:12;;;;;;;8.20;7.50;;;18.10;99.90;;;;;;5067176;28;20511;-81
2021/06/04 01:59:42;;;;;;;8.07;7.47;;;18.10;99.90;;;;;;5068622;28;20454;-82
2021/06/04 02:02:09;;;;;;;7.93;7.33;;;18.10;99.90;;;;;;5060860;28;20437;-80
2021/06/04 02:04:39;;;;;;;8.57;7.87;;;18.10;99.90;;;;;;5061534;28;20421;-81
2021/06/04 02:07:10;;;;;;;8.27;7.67;;;18.10;99.90;;;;;;5060312;28;20453;-80
2021/06/04 02:09:37;;;;;;;8.87;8.23;;;18.20;99.90;;;;;;5059696;28;20903;-82
2021/06/04 02:12:05;;;;;;;8.73;7.93;;;18.10;99.90;;;;;;5031907;28;20445;-81
2021/06/04 02:14:41;;;;;;;9.87;9.07;;;18.00;99.90;;;;;;5058750;28;20823;-80
2021/06/04 02:17:22;;;;;;;10.33;9.53;;;17.90;99.90;;;;;;5049805;28;20450;-80
2021/06/04 02:20:18;;;;;;;8.70;8.00;;;18.00;99.90;;;;;;5054010;28;20413;-80
2021/06/04 02:22:53;;;;;;;9.30;8.60;;;18.00;99.90;;;;;;5057028;28;20431;-80
2021/06/04 02:25:46;;;;;;;9.17;8.40;;;17.90;99.90;;;;;;5040904;28;20420;-81
2021/06/04 02:28:27;;;;;;;8.77;8.07;;;17.90;99.90;;;;;;5050455;28;20503;-79
2021/06/04 02:31:00;;;;;;;9.10;8.30;;;17.90;99.90;;;;;;5058721;28;20428;-81
2021/06/04 02:33:38;;;;;;;7.50;6.97;;;17.90;99.90;;;;;;5046561;28;20989;-81
2021/06/04 02:36:09;;;;;;;8.00;7.40;;;17.90;99.90;;;;;;5061369;28;20425;-81
2021/06/04 02:39:18;;;;;;;8.23;7.63;;;18.00;99.90;;;;;;5059894;28;20523;-81
2021/06/04 02:41:59;;;;;;;8.40;7.80;;;18.10;99.90;;;;;;5060942;28;20433;-82
2021/06/04 02:44:30;;;;;;;7.20;6.70;;;18.10;99.90;;;;;;5055118;28;20472;-81
2021/06/04 02:47:05;;;;;;;7.50;7.00;;;18.10;99.90;;;;;;5054350;28;20456;-81
2021/06/04 02:49:34;;;;;;;8.53;7.83;;;18.10;99.90;;;;;;5057065;28;20420;-83
2021/06/04 02:52:24;;;;;;;7.47;6.87;;;18.10;99.90;;;;;;5069155;28;20428;-82
2021/06/04 02:54:51;;;;;;;8.07;7.47;;;18.10;99.90;;;;;;5061448;28;20567;-81
2021/06/04 02:57:19;;;;;;;7.20;6.80;;;18.10;99.90;;;;;;5064287;28;20448;-81
2021/06/04 02:59:47;;;;;;;7.10;6.60;;;18.00;99.90;;;;;;5057427;28;20425;-81
2021/06/04 03:02:17;;;;;;;8.70;8.00;;;18.00;99.90;;;;;;5059130;28;20465;-81
2021/06/04 03:04:48;;;;;;;7.60;7.00;;;18.00;99.90;;;;;;5041583;28;20848;-81
2021/06/04 03:07:26;;;;;;;7.33;6.83;;;18.10;99.90;;;;;;5068062;28;20460;-80
2021/06/04 03:09:54;;;;;;;7.40;6.70;;;18.00;99.90;;;;;;5065976;28;20428;-82
2021/06/04 03:12:25;;;;;;;6.70;6.20;;;18.00;99.90;;;;;;5045531;28;20475;-82
2021/06/04 03:14:53;;;;;;;7.33;6.73;;;18.00;99.90;;;;;;5071157;28;20469;-82
2021/06/04 03:17:20;;;;;;;8.40;7.77;;;18.00;99.90;;;;;;5071088;28;20834;-83
2021/06/04 03:19:46;;;;;;;7.13;6.53;;;18.10;99.90;;;;;;5053509;28;20436;-81
2021/06/04 03:22:25;;;;;;;7.07;6.57;;;18.10;99.90;;;;;;5065868;28;20472;-83
2021/06/04 03:24:51;;;;;;;7.37;6.77;;;18.10;99.90;;;;;;5082390;22;20297;-79
2021/06/04 03:27:20;;;;;;;7.07;6.57;;;18.10;99.90;;;;;;5077866;28;20478;-80
2021/06/04 03:29:46;;;;;;;6.73;6.20;;;18.10;99.90;;;;;;5076353;28;20186;-80
2021/06/04 03:32:14;;;;;;;7.63;7.13;;;18.10;99.90;;;;;;5079892;28;20808;-80
2021/06/04 03:34:41;;;;;;;7.30;6.77;;;18.10;99.90;;;;;;5064325;28;21006;-80
2021/06/04 03:37:09;;;;;;;7.53;7.00;;;18.00;99.90;;;;;;5077690;28;20429;-79
2021/06/04 03:39:39;;;;;;;6.87;6.37;;;18.10;99.90;;;;;;5079222;28;20476;-80
2021/06/04 03:42:08;;;;;;;6.33;5.93;;;18.10;99.90;;;;;;5082358;28;20442;-80
2021/06/04 03:44:36;;;;;;;7.37;6.77;;;18.10;99.90;;;;;;5079958;28;20986;-80
2021/06/04 03:47:03;;;;;;;7.00;6.50;;;18.10;99.90;;;;;;5071146;28;20452;-80
2021/06/04 03:49:28;;;;;;;6.57;6.07;;;18.10;99.90;;;;;;5076011;28;20503;-80
2021/06/04 03:51:57;;;;;;;6.83;6.33;;;18.10;99.90;;;;;;5078841;28;20438;-80
2021/06/04 03:54:30;;;;;;;6.90;6.47;;;18.10;99.90;;;;;;5078617;28;20229;-80
2021/06/04 03:56:56;;;;;;;7.10;6.60;;;18.20;99.90;;;;;;5080037;28;20432;-80
2021/06/04 03:59:22;;;;;;;6.20;5.70;;;18.20;99.90;;;;;;5088108;28;20432;-80
2021/06/04 04:01:56;;;;;;;6.87;6.37;;;18.30;99.90;;;;;;5088806;28;20439;-80
2021/06/04 04:04:22;;;;;;;7.03;6.53;;;18.20;99.90;;;;;;5079670;28;20440;-80
2021/06/04 04:06:48;;;;;;;6.87;6.37;;;18.30;99.90;;;;;;5071817;28;20490;-79
2021/06/04 04:09:15;;;;;;;8.20;7.50;;;18.40;99.90;;;;;;5071120;28;20467;-80
2021/06/04 04:11:43;;;;;;;8.83;8.07;;;18.50;99.90;;;;;;5073963;28;20186;-79
2021/06/04 04:14:09;;;;;;;8.47;7.77;;;18.50;99.90;;;;;;5073702;28;20471;-79
2021/06/04 04:16:35;;;;;;;8.77;7.97;;;18.50;99.90;;;;;;5072853;28;20911;-79
2021/06/04 04:19:01;;;;;;;8.90;8.10;;;18.50;99.90;;;;;;5072369;28;20420;-80
2021/06/04 04:21:27;;;;;;;9.10;8.20;;;18.40;99.90;;;;;;5073251;28;20174;-79
2021/06/04 04:23:57;;;;;;;9.40;8.63;;;18.50;99.90;;;;;;5072780;28;20436;-79
2021/06/04 04:26:32;;;;;;;8.00;7.40;;;18.50;99.90;;;;;;5074495;28;20490;-79
2021/06/04 04:28:59;;;;;;;8.27;7.67;;;18.50;99.90;;;;;;5073684;28;20502;-79
2021/06/04 04:31:29;;;;;;;10.00;9.20;;;18.60;99.90;;;;;;5073658;28;20785;-80
2021/06/04 04:33:55;;;;;;;9.83;9.00;;;18.80;99.90;;;;;;5075062;28;20975;-80
2021/06/04 04:36:25;;;;;;;8.50;7.77;;;18.80;99.90;;;;;;5074131;28;20501;-79
2021/06/04 04:38:50;;;;;;;8.90;8.10;;;18.90;99.90;;;;;;5074140;28;20432;-79
2021/06/04 04:41:16;;;;;;;8.67;8.00;;;19.00;99.90;;;;;;5077249;28;20436;-79
2021/06/04 04:43:45;;;;;;;7.30;6.80;;;19.00;99.90;;;;;;5076886;28;20190;-80
2021/06/04 04:46:12;;;;;;;8.20;7.43;;;19.10;99.90;;;;;;5073601;28;20209;-80
2021/06/04 04:48:38;;;;;;;7.57;7.07;;;19.20;99.90;;;;;;5076375;28;20431;-79
2021/06/04 04:51:07;;;;;;;8.10;7.47;;;19.30;99.90;;;;;;5075583;28;20513;-80
2021/06/04 04:53:33;;;;;;;8.43;7.73;;;19.40;99.90;;;;;;5076893;28;20232;-80
2021/06/04 04:55:59;;;;;;;8.17;7.57;;;19.50;99.90;;;;;;5076855;28;20451;-79
2021/06/04 04:58:25;;;;;;;9.43;8.73;;;19.60;99.90;;;;;;5070883;28;20436;-80
2021/06/04 05:00:51;;;;;;;9.17;8.37;;;19.60;99.90;;;;;;5077452;28;20607;-80
2021/06/04 05:03:20;;;;;;;7.93;7.33;;;19.60;99.90;;;;;;5077493;28;20178;-80
2021/06/04 05:05:46;;;;;;;8.50;7.90;;;19.60;99.90;;;;;;5078065;28;20247;-80
2021/06/04 05:08:12;;;;;;;8.43;7.73;;;19.70;99.90;;;;;;5069260;28;20420;-79
2021/06/04 05:10:38;;;;;;;7.93;7.43;;;19.80;99.90;;;;;;5076784;28;20451;-79
2021/06/04 05:13:06;;;;;;;7.80;7.20;;;19.80;99.90;;;;;;5081718;28;20182;-80
2021/06/04 05:15:34;;;;;;;8.10;7.47;;;19.90;99.90;;;;;;5080800;28;20197;-79
2021/06/04 05:17:59;;;;;;;8.90;8.30;;;20.00;99.90;;;;;;5090576;28;20412;-80
2021/06/04 05:20:25;;;;;;;7.30;6.80;;;20.00;99.90;;;;;;5070159;28;20430;-80
2021/06/04 05:22:52;;;;;;;7.30;6.70;;;20.00;99.90;;;;;;5080902;28;20217;-80
2021/06/04 05:25:23;;;;;;;8.00;7.40;;;20.10;99.90;;;;;;5078820;28;20471;-80
2021/06/04 05:27:51;;;;;;;7.73;7.10;;;20.20;99.90;;;;;;5079037;28;20953;-80
2021/06/04 05:30:30;;;;;;;8.07;7.47;;;20.20;99.90;;;;;;5078669;28;20496;-80
2021/06/04 05:32:56;;;;;;;8.30;7.70;;;20.40;99.90;;;;;;5075610;28;20527;-80
2021/06/04 05:35:23;;;;;;;8.40;7.70;;;20.40;99.90;;;;;;5079108;28;20467;-79
2021/06/04 05:37:49;;;;;;;7.73;7.20;;;20.50;99.90;;;;;;5078995;28;20435;-80
2021/06/04 05:40:20;;;;;;;8.27;7.70;;;20.60;99.90;;;;;;5077558;28;20432;-80
2021/06/04 05:42:46;;;;;;;8.23;7.53;;;20.60;99.90;;;;;;5080111;28;20181;-80
2021/06/04 05:45:13;;;;;;;8.10;7.40;;;20.60;99.90;;;;;;5083872;28;20448;-80
2021/06/04 05:47:39;;;;;;;8.60;7.90;;;20.60;99.90;;;;;;5077329;28;20435;-80
2021/06/04 05:50:11;;;;;;;7.90;7.30;;;20.60;99.90;;;;;;5075351;28;20432;-79
2021/06/04 05:52:37;;;;;;;8.27;7.57;;;20.60;99.90;;;;;;5075592;28;20182;-80
2021/06/04 05:55:03;;;;;;;8.93;8.13;;;20.70;99.90;;;;;;5074383;28;20488;-79
2021/06/04 05:57:29;;;;;;;6.93;6.47;;;20.80;99.90;;;;;;5075615;28;20875;-80
2021/06/04 05:59:54;;;;;;;8.07;7.47;;;20.70;99.90;;;;;;5074407;28;20434;-79
2021/06/04 06:02:20;;;;;;;8.00;7.40;;;20.70;99.90;;;;;;5077018;28;20188;-79
2021/06/04 06:04:46;;;;;;;9.43;8.63;;;20.60;99.90;;;;;;5076926;28;20453;-78
2021/06/04 06:07:11;;;;;;;8.93;8.20;;;20.50;99.90;;;;;;5081363;28;20209;-78
2021/06/04 06:09:37;;;;;;;8.50;7.80;;;20.40;99.90;;;;;;5084130;28;20191;-78
2021/06/04 06:12:03;;;;;;;8.50;7.80;;;20.20;99.90;;;;;;5084745;28;20193;-79
2021/06/04 06:14:29;;;;;;;9.37;8.57;;;20.10;99.90;;;;;;5082754;28;20214;-79
2021/06/04 06:16:54;;;;;;;8.50;7.80;;;20.10;99.90;;;;;;5083280;28;20519;-79
2021/06/04 06:19:21;;;;;;;9.23;8.53;;;20.00;99.90;;;;;;5076697;28;20197;-79
2021/06/04 06:21:50;;;;;;;9.93;9.07;;;19.90;99.90;;;;;;5079787;28;20193;-79
2021/06/04 06:24:16;;;;;;;10.90;10.00;;;20.00;99.90;;;;;;5080055;28;20537;-79
2021/06/04 06:26:42;;;;;;;10.13;9.40;;;19.90;99.90;;;;;;5076956;28;20516;-80
2021/06/04 06:29:11;;;;;;;12.47;10.47;;;20.00;99.90;;;;;;5074097;28;20486;-77
2021/06/04 06:31:40;;;;;;;10.73;9.50;;;20.00;99.90;;;;;;5076093;28;20428;-79
2021/06/04 06:34:09;;;;;;;9.93;9.23;;;20.00;99.90;;;;;;5082271;28;20471;-79
2021/06/04 06:36:37;;;;;;;10.10;9.30;;;20.00;99.90;;;;;;5083094;28;20442;-78
2021/06/04 06:39:10;;;;;;;9.30;8.60;;;20.00;99.90;;;;;;5074594;28;20435;-79
2021/06/04 06:41:38;;;;;;;9.57;8.83;;;20.00;99.90;;;;;;5083366;28;20435;-79
2021/06/04 06:44:04;;;;;;;9.60;8.67;;;20.20;99.90;;;;;;5083772;28;20815;-79
2021/06/04 06:46:30;;;;;;;10.30;9.30;;;20.30;99.90;;;;;;5078591;28;20440;-80
2021/06/04 06:48:56;;;;;;;10.23;9.43;;;20.30;99.90;;;;;;5080782;28;20185;-79
2021/06/04 06:51:22;;;;;;;8.63;7.83;;;20.50;99.90;;;;;;5076950;28;20194;-79
2021/06/04 06:53:47;;;;;;;9.57;8.87;;;20.50;99.90;;;;;;5074115;28;20210;-80
2021/06/04 06:56:16;;;;;;;9.47;8.77;;;20.70;99.90;;;;;;5073999;28;20197;-81
2021/06/04 06:58:46;;;;;;;9.50;8.70;;;20.90;99.90;;;;;;5072682;28;20193;-79
2021/06/04 07:01:12;;;;;;;9.10;8.30;;;20.90;99.90;;;;;;5076922;28;20432;-79
2021/06/04 07:03:39;;;;;;;9.13;8.43;;;20.90;99.90;;;;;;5078406;28;20428;-80
2021/06/04 07:06:16;;;;;;;9.40;8.70;;;20.90;99.90;;;;;;5074742;28;20455;-80
2021/06/04 07:08:42;;;;;;;9.33;8.60;;;21.00;99.90;;;;;;5073055;28;21251;-80
2021/06/04 07:11:08;;;;;;;10.43;9.43;;;20.90;99.90;;;;;;5077218;28;20797;-79
2021/06/04 07:13:34;;;;;;;8.83;8.13;;;21.00;99.90;;;;;;5080841;28;20482;-79
2021/06/04 07:16:06;;;;;;;9.17;8.47;;;21.10;99.90;;;;;;5077516;28;20432;-80
2021/06/04 07:18:32;;;;;;;9.70;9.00;;;21.10;99.90;;;;;;5064964;28;20236;-79
2021/06/04 07:20:58;;;;;;;9.73;8.83;;;21.30;99.90;;;;;;5072882;28;20538;-80
2021/06/04 07:23:25;;;;;;;10.13;9.23;;;21.30;99.90;;;;;;5075370;28;20184;-79
2021/06/04 07:25:51;;;;;;;10.00;9.10;;;21.40;99.90;;;;;;5075165;28;20456;-80
2021/06/04 07:28:20;;;;;;;8.83;8.23;;;21.40;99.90;;;;;;5073588;28;20492;-78
2021/06/04 07:30:48;;;;;;;9.20;8.50;;;21.50;99.90;;;;;;5084774;28;20458;-79
2021/06/04 07:33:35;;;;;;;8.60;8.00;;;21.70;99.90;;;;;;5089317;28;20404;-79
2021/06/04 07:36:05;;;;;;;8.97;8.17;;;21.90;99.90;;;;;;5079996;28;20443;-80
2021/06/04 07:38:31;;;;;;;8.77;8.07;;;22.00;99.90;;;;;;5072632;28;20440;-80
2021/06/04 07:41:00;;;;;;;9.40;8.63;;;22.00;99.90;;;;;;5072629;28;20427;-80
2021/06/04 07:43:28;;;;;;;8.40;7.70;;;21.90;99.90;;;;;;5074263;28;20209;-80
2021/06/04 07:45:55;;;;;;;7.00;6.50;;;22.00;99.90;;;;;;5071708;28;20606;-80
2021/06/04 07:48:20;;;;;;;8.93;8.13;;;22.10;99.90;;;;;;5072739;28;20709;-79
2021/06/04 07:50:49;;;;;;;7.67;7.00;;;22.30;99.90;;;;;;5070399;28;20428;-79
2021/06/04 07:53:18;;;;;;;7.67;7.07;;;22.50;99.90;;;;;;5074374;28;20201;-79
2021/06/04 07:55:45;;;;;;;7.23;6.70;;;22.50;99.90;;;;;;5068453;28;20559;-79
2021/06/04 07:58:12;;;;;;;6.93;6.43;;;22.60;99.90;;;;;;5077111;28;20427;-79
2021/06/04 08:00:38;;;;;;;8.23;7.63;;;22.70;99.90;;;;;;5075370;28;20466;-79
2021/06/04 08:03:06;;;;;;;8.03;7.30;;;23.00;99.90;;;;;;5076361;28;20416;-79
2021/06/04 08:05:33;;;;;;;8.97;7.57;;;23.10;99.90;;;;;;5077073;28;20474;-79
2021/06/04 08:08:01;;;;;;;6.57;6.17;;;23.00;99.90;;;;;;5080273;28;20566;-79
2021/06/04 08:10:26;;;;;;;8.17;7.30;;;23.10;99.90;;;;;;5075692;28;20437;-80
2021/06/04 08:12:52;;;;;;;7.47;6.80;;;23.20;99.90;;;;;;5073778;28;20463;-80
2021/06/04 08:15:23;;;;;;;6.93;6.33;;;23.30;99.90;;;;;;5071812;28;20290;-77
2021/06/04 08:17:50;;;;;;;7.63;7.00;;;23.40;99.90;;;;;;5075169;28;20458;-79
2021/06/04 08:20:22;;;;;;;7.10;6.50;;;23.40;99.90;;;;;;5074788;28;20416;-80
2021/06/04 08:22:50;;;;;;;9.53;5.90;;;23.60;99.90;;;;;;5074104;28;20424;-79
2021/06/04 08:25:18;;;;;;;7.70;7.10;;;23.70;99.90;;;;;;5074661;28;20494;-79
2021/06/04 08:27:43;;;;;;;6.97;6.37;;;23.90;99.90;;;;;;5075251;28;20753;-79
2021/06/04 08:30:10;;;;;;;7.73;7.10;;;23.90;99.90;;;;;;5076394;28;20960;-80
2021/06/04 08:32:37;;;;;;;7.93;6.03;;;23.70;99.90;;;;;;5072773;28;20544;-80
2021/06/04 08:35:05;;;;;;;7.33;6.80;;;23.80;99.90;;;;;;5072173;28;20467;-80
2021/06/04 08:37:31;;;;;;;7.10;6.40;;;23.80;99.90;;;;;;5074314;28;20431;-81
2021/06/04 08:39:56;;;;;;;7.40;6.83;;;23.80;99.90;;;;;;5075666;28;20638;-81
2021/06/04 08:42:28;;;;;;;7.20;6.70;;;23.80;99.90;;;;;;5076183;28;20209;-81
2021/06/04 08:45:32;;;;;;;7.17;6.67;;;23.80;99.90;;;;;;5077719;28;20682;-80
2021/06/04 08:48:15;;;;;;;6.30;5.80;;;23.90;99.90;;;;;;5073652;28;20451;-79
2021/06/04 08:50:58;;;;;;;6.30;5.90;;;23.90;99.90;;;;;;5065527;28;20518;-79
2021/06/04 08:53:56;;;;;;;5.50;5.00;;;24.10;99.90;;;;;;5068849;28;20432;-79
2021/06/04 08:56:54;;;;;;;6.63;6.07;;;24.30;99.90;;;;;;5070509;28;20436;-79
2021/06/04 08:59:20;;;;;;;7.13;6.53;;;24.50;99.90;;;;;;5068778;28;20419;-79
2021/06/04 09:02:10;;;;;;;6.10;5.60;;;24.60;99.90;;;;;;5062681;28;20450;-79
2021/06/04 09:04:53;;;;;;;6.20;5.70;;;24.60;99.90;;;;;;5067778;28;20461;-81
2021/06/04 09:07:24;;;;;;;6.10;5.70;;;24.80;99.90;;;;;;5070817;28;20424;-81
2021/06/04 09:10:01;;;;;;;6.50;6.00;;;24.90;99.90;;;;;;5071056;28;20450;-82
2021/06/04 09:12:56;;;;;;;7.07;6.47;;;25.10;99.90;;;;;;5070771;28;20859;-78
2021/06/04 09:15:25;;;;;;;6.47;5.87;;;25.30;99.90;;;;;;5071641;28;20473;-79
2021/06/04 09:18:03;;;;;;;6.03;5.43;;;25.20;99.90;;;;;;5071455;28;20766;-79
2021/06/04 09:20:54;;;;;;;4.40;4.10;;;25.20;99.90;;;;;;5062888;28;20424;-79
2021/06/04 09:23:36;;;;;;;5.40;4.90;;;25.30;99.90;;;;;;5067309;28;20446;-79
2021/06/04 09:26:03;;;;;;;3.90;3.70;;;25.30;99.90;;;;;;5060560;22;20505;-82
2021/06/04 09:28:53;;;;;;;6.40;6.00;;;25.30;99.90;;;;;;5046592;28;20410;-81
2021/06/04 09:31:21;;;;;;;6.10;5.50;;;25.40;99.90;;;;;;5025428;28;20445;-83
2021/06/04 09:33:55;;;;;;;4.70;4.40;;;25.40;99.90;;;;;;5046920;28;20450;-82
2021/06/04 09:36:40;;;;;;;4.63;4.33;;;25.40;99.90;;;;;;5069038;28;20480;-81
2021/06/04 09:39:08;;;;;;;5.00;4.60;;;25.40;99.90;;;;;;5056144;28;20434;-80
2021/06/04 09:41:46;;;;;;;4.60;4.30;;;25.40;99.90;;;;;;5070186;28;20456;-82
2021/06/04 09:44:17;;;;;;;4.10;3.90;;;25.60;99.90;;;;;;5070137;28;20420;-81
2021/06/04 09:47:17;;;;;;;4.50;4.10;;;25.80;99.90;;;;;;5066118;28;20544;-83
2021/06/04 09:49:43;;;;;;;4.10;3.90;;;25.90;99.90;;;;;;5062479;28;20432;-82
2021/06/04 09:52:20;;;;;;;4.17;3.90;;;26.00;99.90;;;;;;5073892;28;20544;-81
2021/06/04 09:54:46;;;;;;;4.30;4.00;;;26.10;99.90;;;;;;5067248;28;20237;-81
2021/06/04 09:57:15;;;;;;;4.80;4.50;;;26.20;99.90;;;;;;5062354;28;20441;-80
2021/06/04 09:59:41;;;;;;;5.37;4.97;;;26.30;99.90;;;;;;5054620;28;20191;-80
2021/06/04 10:02:37;;;;;;;5.63;4.40;;;26.30;99.90;;;;;;5059850;28;20877;-78
2021/06/04 10:05:11;;;;;;;5.40;5.00;;;26.10;99.90;;;;;;5062277;28;20505;-79
2021/06/04 10:07:37;;;;;;;4.83;4.43;;;26.00;99.90;;;;;;5060306;28;20444;-79
2021/06/04 10:10:11;;;;;;;5.20;4.80;;;25.90;99.90;;;;;;5061061;28;20428;-80
2021/06/04 10:12:48;;;;;;;4.20;3.90;;;25.90;99.90;;;;;;5064690;28;20232;-81
2021/06/04 10:15:36;;;;;;;4.10;3.80;;;25.80;99.90;;;;;;5062764;28;20475;-80
2021/06/04 10:18:24;;;;;;;4.37;4.07;;;25.80;99.90;;;;;;5057408;28;20846;-79
2021/06/04 10:20:50;;;;;;;4.37;3.97;;;25.90;99.90;;;;;;5057622;28;20447;-81
2021/06/04 10:23:50;;;;;;;6.03;4.53;;;25.90;99.90;;;;;;5062723;28;20435;-82
2021/06/04 10:26:51;;;;;;;4.53;4.23;;;26.00;99.90;;;;;;4988888;28;20513;-82
2021/06/04 10:29:16;;;;;;;4.80;4.40;;;26.20;99.90;;;;;;4981787;28;20429;-81
2021/06/04 10:32:00;;;;;;;4.43;4.03;;;26.20;99.90;;;;;;4989523;28;20474;-82
2021/06/04 10:34:54;;;;;;;4.93;4.53;;;26.30;99.90;;;;;;4978357;28;20247;-82
2021/06/04 10:37:45;;;;;;;4.97;4.47;;;26.20;99.90;;;;;;4981137;28;20428;-83
2021/06/04 10:40:19;;;;;;;4.47;4.17;;;26.50;99.90;;;;;;4997374;28;20472;-83
2021/06/04 10:43:25;;;;;;;4.33;4.03;;;26.40;99.90;;;;;;4986855;28;21036;-80
2021/06/04 10:46:02;;;;;;;4.67;4.27;;;26.50;99.90;;;;;;4975581;28;20460;-82
2021/06/04 10:48:52;;;;;;;4.73;4.37;;;26.70;99.90;;;;;;4979229;28;20404;-82
2021/06/04 10:51:29;;;;;;;5.07;4.67;;;27.00;99.90;;;;;;4999234;28;20455;-82
2021/06/04 10:54:03;;;;;;;5.60;5.10;;;27.10;99.90;;;;;;4992766;28;20846;-82
2021/06/04 10:56:36;;;;;;;4.83;4.53;;;27.10;99.90;;;;;;4985480;28;20550;-82
2021/06/04 10:59:34;;;;;;;5.50;5.10;;;27.10;99.90;;;;;;4979170;28;20839;-81
2021/06/04 11:02:15;;;;;;;4.87;4.53;;;27.10;99.90;;;;;;4992006;28;20474;-81
2021/06/04 11:05:01;;;;;;;4.73;4.40;;;27.10;99.90;;;;;;5064809;28;20510;-79
2021/06/04 11:08:00;;;;;;;4.80;4.40;;;27.10;99.90;;;;;;5058347;28;20440;-79
2021/06/04 11:10:51;;;;;;;5.20;4.80;;;27.00;99.90;;;;;;4997911;28;20421;-81
2021/06/04 11:13:54;;;;;;;5.30;4.90;;;27.10;99.90;;;;;;5056507;28;20436;-80
2021/06/04 11:16:29;;;;;;;5.50;5.00;;;26.90;99.90;;;;;;5059623;28;20940;-82
2021/06/04 11:19:29;;;;;;;5.10;4.70;;;26.70;99.90;;;;;;5061183;28;20417;-81
2021/06/04 11:22:02;;;;;;;4.20;3.90;;;26.90;99.90;;;;;;5065492;28;20409;-82
2021/06/04 11:24:56;;;;;;;4.93;4.47;;;27.00;99.90;;;;;;5066831;28;20437;-80
2021/06/04 11:27:31;;;;;;;4.40;4.10;;;27.20;99.90;;;;;;5051805;28;20837;-79
2021/06/04 11:29:57;;;;;;;4.50;4.20;;;27.40;99.90;;;;;;5053426;28;20432;-81
2021/06/04 11:32:32;;;;;;;4.53;4.23;;;27.30;99.90;;;;;;5043725;28;20426;-80
2021/06/04 11:35:00;;;;;;;4.63;4.30;;;27.40;99.90;;;;;;5058168;28;20545;-80
2021/06/04 11:37:38;;;;;;;4.93;4.30;;;27.30;99.90;;;;;;5055864;28;20456;-80
2021/06/04 11:40:15;;;;;;;4.13;3.80;;;27.40;99.90;;;;;;5059609;28;20450;-80
2021/06/04 11:42:55;;;;;;;4.50;4.10;;;27.60;99.90;;;;;;5058570;28;20502;-81
2021/06/04 11:45:25;;;;;;;4.87;4.57;;;27.60;99.90;;;;;;5057883;28;20677;-83
2021/06/04 11:47:51;;;;;;;4.87;4.50;;;27.60;99.90;;;;;;5064319;28;20425;-82
2021/06/04 11:50:34;;;;;;;4.37;3.97;;;27.70;99.90;;;;;;5068953;28;20508;-82
2021/06/04 11:53:33;;;;;;;4.33;4.00;;;28.00;99.90;;;;;;5061047;28;20427;-80
2021/06/04 11:56:01;;;;;;;6.80;4.73;;;28.10;99.90;;;;;;5057891;28;20526;-81
2021/06/04 11:58:29;;;;;;;5.40;5.10;;;28.20;99.90;;;;;;5053523;28;20413;-81
2021/06/04 12:01:14;;;;;;;4.53;4.23;;;28.10;99.90;;;;;;5060247;28;20433;-81
2021/06/04 12:04:06;;;;;;;4.83;4.53;;;28.20;99.90;;;;;;5054515;28;20447;-79
2021/06/04 12:06:47;;;;;;;4.97;4.33;;;28.50;99.90;;;;;;5040821;28;20472;-81
2021/06/04 12:09:31;;;;;;;5.40;4.23;;;29.40;99.90;;;;;;5054757;28;20440;-81
2021/06/04 12:12:15;;;;;;;4.13;3.83;;;29.90;99.90;;;;;;5059461;28;20441;-82
2021/06/04 12:14:42;;;;;;;4.20;3.90;;;30.00;99.90;;;;;;5048081;28;20539;-82
2021/06/04 12:17:25;;;;;;;4.30;4.00;;;30.70;99.90;;;;;;5056758;28;20816;-82
2021/06/04 12:20:28;;;;;;;5.40;3.83;;;32.10;99.90;;;;;;5048034;28;20979;-81
2021/06/04 12:23:03;;;;;;;4.50;4.20;;;32.40;99.90;;;;;;5057795;28;20420;-82
2021/06/04 12:26:02;;;;;;;4.20;3.90;;;32.50;99.90;;;;;;5054235;28;20468;-81
2021/06/04 12:28:28;;;;;;;4.53;4.23;;;32.50;99.90;;;;;;5059901;28;20174;-81
2021/06/04 12:30:59;;;;;;;3.33;3.03;;;32.90;98.80;;;;;;5068653;28;20444;-81
2021/06/04 12:33:50;;;;;;;3.53;3.33;;;33.00;96.20;;;;;;5056335;28;20204;-83
2021/06/04 12:36:41;;;;;;;3.80;2.70;;;33.20;94.90;;;;;;5050585;28;20999;-80
2021/06/04 12:39:28;;;;;;;3.43;3.00;;;32.70;92.20;;;;;;5045779;28;20941;-81
2021/06/04 12:42:18;;;;;;;4.00;3.70;;;33.00;93.10;;;;;;5054032;28;20404;-82
2021/06/04 12:45:05;;;;;;;3.00;2.80;;;33.50;92.40;;;;;;5044577;28;20237;-82
2021/06/04 12:47:36;;;;;;;4.10;3.63;;;33.60;89.30;;;;;;5035818;28;20257;-82
2021/06/04 12:50:10;;;;;;;2.90;2.70;;;33.90;89.20;;;;;;5058157;28;20588;-82
2021/06/04 12:52:36;;;;;;;3.03;2.83;;;33.40;88.70;;;;;;5041324;28;20209;-81
2021/06/04 12:55:14;;;;;;;7.43;4.03;;;33.30;90.00;;;;;;5058995;28;20228;-82
2021/06/04 12:57:39;;;;;;;3.90;3.50;;;33.30;89.80;;;;;;5056051;28;20166;-82
2021/06/04 13:00:26;;;;;;;6.43;3.17;;;32.80;90.10;;;;;;5048496;28;20208;-81
2021/06/04 13:02:55;;;;;;;3.60;3.30;;;32.30;89.80;;;;;;5059178;28;20174;-82
2021/06/04 13:05:28;;;;;;;3.57;3.27;;;31.80;90.70;;;;;;5046142;28;20463;-82
2021/06/04 13:07:56;;;;;;;4.37;4.07;;;31.90;91.40;;;;;;5074426;28;20437;-83
2021/06/04 13:10:29;;;;;;;6.77;3.93;;;31.60;91.50;;;;;;5074745;28;20424;-82
2021/06/04 13:13:13;;;;;;;4.43;4.13;;;31.70;91.50;;;;;;5067064;28;20857;-82
2021/06/04 13:15:38;;;;;;;4.23;3.93;;;31.60;91.40;;;;;;5082472;28;20565;-82
2021/06/04 13:18:07;;;;;;;4.37;3.97;;;31.80;91.80;;;;;;5072728;28;20419;-82